Antonito, Colorado
Current Conditions -  °F | °C
As of 4:52 AM on Sunday 21 Dec 2014 (Local Time) from KALS Reporting Station
Clear Clear  
Wind Chill: -21°   Ceiling: Unl
Heat Index: -14°   Visibility: 10mi
Dew Point: -17°   Wind: 7mph
Humidity: 83%   Direction: 190°S
Pressure: 29.98"   Gusts: NA
Location:  37.08°N, 106.01°W
Report Text: KALS 211152Z AUTO 19006KT 10SM CLR M14/M17 A2998 RMK AO2 SLP202 T11441167 11083 21144 58011
Loading
Personal Weather Stations






























Interactive Weather Map New forecast layout! Learn more

10-Day Weather Forecast

Advertisements
Track Severe Weather on mobile